Time;durP1;ratioP1;P1;durP2;ratioP2;P2;SDS_P1;SDS_P2;PMS_P1;PMS_P2;Temp;Humidity;BMP_temperature;BMP_pressure;BME280_temperature;BME280_humidity;BME280_pressure;Samples;Min_cycle;Max_cycle;Signal;HPM_P1;HPM_P2
2021/09/12 00:01:49;;;;;;;12.82;7.97;;;14.90;93.70;;;;;;5054012;28;20018;-76
2021/09/12 00:04:15;;;;;;;16.60;7.85;;;14.80;93.70;;;;;;5054059;28;20035;-75
2021/09/12 00:06:42;;;;;;;13.60;8.52;;;14.80;93.80;;;;;;5053686;28;20049;-73
2021/09/12 00:09:07;;;;;;;11.50;8.02;;;14.80;94.10;;;;;;5053762;28;20477;-76
2021/09/12 00:11:33;;;;;;;14.85;8.98;;;14.80;94.20;;;;;;5052549;28;20036;-76
2021/09/12 00:13:59;;;;;;;14.85;7.70;;;14.80;93.90;;;;;;5053651;28;20033;-77
2021/09/12 00:16:24;;;;;;;13.38;7.85;;;14.70;94.20;;;;;;5053627;28;20025;-76
2021/09/12 00:18:50;;;;;;;16.40;8.57;;;14.70;94.40;;;;;;5053667;28;20492;-76
2021/09/12 00:21:16;;;;;;;12.10;8.73;;;14.70;94.30;;;;;;5053628;28;20029;-76
2021/09/12 00:23:41;;;;;;;10.25;7.00;;;14.70;94.30;;;;;;5053820;28;20040;-76
2021/09/12 00:26:07;;;;;;;11.48;8.13;;;14.70;94.40;;;;;;5053467;28;20064;-75
2021/09/12 00:28:32;;;;;;;16.13;7.93;;;14.70;94.10;;;;;;5053449;28;20526;-76
2021/09/12 00:30:58;;;;;;;20.20;8.38;;;14.70;94.10;;;;;;5053751;28;20472;-76
2021/09/12 00:33:23;;;;;;;17.27;8.60;;;14.60;94.10;;;;;;5052024;28;20028;-76
2021/09/12 00:35:49;;;;;;;19.15;8.27;;;14.60;95.30;;;;;;5053160;28;20128;-75
2021/09/12 00:38:15;;;;;;;12.63;7.75;;;14.60;94.40;;;;;;5053238;28;20126;-75
2021/09/12 00:40:40;;;;;;;14.50;8.10;;;14.60;94.40;;;;;;5053291;28;20021;-75
2021/09/12 00:43:06;;;;;;;8.68;7.32;;;14.50;94.40;;;;;;5053190;28;20021;-76
2021/09/12 00:45:32;;;;;;;9.52;8.15;;;14.50;94.50;;;;;;5053057;28;20028;-75
2021/09/12 00:47:57;;;;;;;9.13;7.43;;;14.50;94.40;;;;;;5053155;28;20053;-74
2021/09/12 00:50:23;;;;;;;9.70;7.18;;;14.50;94.60;;;;;;5053106;28;20025;-76
2021/09/12 00:52:51;;;;;;;11.15;7.72;;;14.50;94.60;;;;;;5053083;28;20047;-75
2021/09/12 00:55:17;;;;;;;10.57;6.85;;;14.50;94.20;;;;;;5052997;28;20036;-76
2021/09/12 00:57:44;;;;;;;11.27;7.00;;;14.50;94.20;;;;;;5053117;28;20071;-76
2021/09/12 01:00:12;;;;;;;13.27;6.88;;;14.50;94.20;;;;;;5052902;28;20029;-75
2021/09/12 01:02:38;;;;;;;10.48;7.65;;;14.40;93.80;;;;;;5053224;28;20048;-76
2021/09/12 01:05:06;;;;;;;10.98;7.20;;;14.40;94.00;;;;;;5052976;28;20485;-74
2021/09/12 01:07:32;;;;;;;10.57;7.50;;;14.40;93.80;;;;;;5052939;28;20067;-74
2021/09/12 01:09:57;;;;;;;8.23;6.82;;;14.30;93.90;;;;;;5052844;28;20056;-75
2021/09/12 01:12:23;;;;;;;11.07;7.63;;;14.30;94.20;;;;;;5052790;28;20535;-74
2021/09/12 01:14:49;;;;;;;9.57;6.82;;;14.30;94.20;;;;;;5052879;28;20025;-76
2021/09/12 01:17:15;;;;;;;11.85;7.20;;;14.20;94.20;;;;;;5052797;28;20021;-76
2021/09/12 01:19:40;;;;;;;10.45;7.68;;;14.20;94.10;;;;;;5050888;28;20029;-76
2021/09/12 01:22:07;;;;;;;9.82;6.78;;;14.20;94.00;;;;;;5052844;28;20060;-74
2021/09/12 01:24:33;;;;;;;9.77;7.10;;;14.20;94.20;;;;;;5052711;28;20455;-76
2021/09/12 01:26:59;;;;;;;7.90;6.47;;;14.10;94.30;;;;;;5052771;28;20033;-75
2021/09/12 01:29:25;;;;;;;9.77;7.28;;;14.10;94.30;;;;;;5052776;28;20021;-75
2021/09/12 01:31:51;;;;;;;10.23;6.80;;;14.10;94.10;;;;;;5052675;28;20104;-76
2021/09/12 01:34:16;;;;;;;11.13;6.60;;;14.10;94.30;;;;;;5052586;28;20092;-75
2021/09/12 01:36:43;;;;;;;8.88;6.57;;;14.10;94.30;;;;;;5052607;28;20112;-75
2021/09/12 01:39:09;;;;;;;11.32;6.65;;;14.00;94.20;;;;;;5052432;28;20033;-76
2021/09/12 01:41:35;;;;;;;7.85;6.43;;;14.10;94.20;;;;;;5052661;28;20469;-76
2021/09/12 01:44:03;;;;;;;10.82;6.43;;;14.00;93.90;;;;;;5052627;28;20032;-75
2021/09/12 01:46:29;;;;;;;8.77;6.15;;;14.10;94.10;;;;;;5052317;28;20025;-76
2021/09/12 01:48:57;;;;;;;9.88;6.53;;;14.10;93.80;;;;;;5052526;28;20028;-75
2021/09/12 01:51:22;;;;;;;11.48;6.50;;;14.00;93.70;;;;;;5052445;28;20017;-75
2021/09/12 01:53:49;;;;;;;11.00;6.47;;;14.00;93.50;;;;;;5052351;28;20037;-76
2021/09/12 01:56:15;;;;;;;7.05;6.13;;;14.00;93.50;;;;;;5052370;28;20066;-76
2021/09/12 01:58:41;;;;;;;6.93;5.53;;;13.90;93.20;;;;;;5052458;28;20025;-76
2021/09/12 02:01:07;;;;;;;8.18;5.07;;;13.90;93.30;;;;;;5052400;28;20032;-74
2021/09/12 02:03:33;;;;;;;8.00;5.32;;;13.90;93.30;;;;;;5052370;28;20468;-75
2021/09/12 02:05:59;;;;;;;5.65;4.72;;;13.80;93.10;;;;;;5052396;28;20383;-76
2021/09/12 02:08:24;;;;;;;5.75;4.53;;;13.90;93.10;;;;;;5052324;28;20465;-74
2021/09/12 02:10:50;;;;;;;7.05;4.90;;;13.90;92.70;;;;;;5052337;28;20036;-74
2021/09/12 02:13:16;;;;;;;5.00;4.40;;;13.80;92.70;;;;;;5052128;28;20032;-75
2021/09/12 02:15:42;;;;;;;7.22;4.63;;;13.70;92.90;;;;;;5052614;28;20032;-76
2021/09/12 02:18:08;;;;;;;5.93;4.95;;;13.70;92.70;;;;;;5055577;28;20103;-76
2021/09/12 02:20:34;;;;;;;7.90;5.07;;;13.70;92.80;;;;;;5057896;28;20548;-76
2021/09/12 02:22:59;;;;;;;5.72;4.88;;;13.70;92.60;;;;;;5055217;28;20156;-77
2021/09/12 02:25:25;;;;;;;7.43;4.40;;;13.70;92.40;;;;;;5054438;28;20056;-76
2021/09/12 02:27:50;;;;;;;8.35;4.43;;;13.60;92.30;;;;;;5052353;28;20025;-76
2021/09/12 02:30:16;;;;;;;8.45;4.50;;;13.60;92.70;;;;;;5052340;28;20461;-76
2021/09/12 02:32:42;;;;;;;7.38;4.60;;;13.60;92.70;;;;;;5054037;28;20028;-76
2021/09/12 02:35:09;;;;;;;6.95;4.18;;;13.60;92.50;;;;;;5055578;28;20053;-75
2021/09/12 02:37:35;;;;;;;6.43;4.53;;;13.60;92.30;;;;;;5055702;28;20021;-76
2021/09/12 02:40:00;;;;;;;7.40;4.72;;;13.50;92.20;;;;;;5055858;28;20174;-76
2021/09/12 02:42:26;;;;;;;5.05;4.32;;;13.60;92.20;;;;;;5055521;28;20409;-76
2021/09/12 02:44:51;;;;;;;5.75;4.25;;;13.50;92.30;;;;;;5055549;28;20025;-76
2021/09/12 02:47:18;;;;;;;4.40;4.00;;;13.50;92.20;;;;;;5055469;28;20021;-76
2021/09/12 02:49:43;;;;;;;6.85;4.38;;;13.60;92.00;;;;;;5055492;28;20029;-76
2021/09/12 02:52:09;;;;;;;5.78;4.35;;;13.60;91.90;;;;;;5055326;28;20024;-76
2021/09/12 02:54:35;;;;;;;5.18;3.85;;;13.50;91.60;;;;;;5055311;28;20041;-75
2021/09/12 02:57:00;;;;;;;4.75;3.67;;;13.50;91.60;;;;;;5055353;28;20051;-76
2021/09/12 02:59:26;;;;;;;4.18;3.67;;;13.50;91.50;;;;;;5055301;28;20091;-75
2021/09/12 03:01:51;;;;;;;4.65;4.15;;;13.50;91.70;;;;;;5055310;28;20520;-76
2021/09/12 03:04:17;;;;;;;4.47;3.90;;;13.50;91.30;;;;;;5055177;28;20499;-75
2021/09/12 03:06:42;;;;;;;6.82;3.60;;;13.40;91.30;;;;;;5055082;28;20079;-75
2021/09/12 03:09:08;;;;;;;5.68;3.65;;;13.40;91.60;;;;;;5055089;28;20150;-76
2021/09/12 03:11:33;;;;;;;5.65;4.10;;;13.30;91.90;;;;;;5054971;28;20021;-76
2021/09/12 03:13:59;;;;;;;4.10;3.65;;;13.30;91.90;;;;;;5054904;28;20036;-76
2021/09/12 03:16:24;;;;;;;7.30;4.10;;;13.30;91.90;;;;;;5054966;28;20036;-76
2021/09/12 03:18:50;;;;;;;3.67;3.38;;;13.30;91.70;;;;;;5054946;28;20036;-75
2021/09/12 03:21:16;;;;;;;5.07;3.42;;;13.30;91.80;;;;;;5054982;28;20040;-76
2021/09/12 03:23:42;;;;;;;3.63;3.33;;;13.30;91.70;;;;;;5054812;28;20021;-76
2021/09/12 03:26:07;;;;;;;4.10;3.53;;;13.30;91.60;;;;;;5054743;28;20028;-75
2021/09/12 03:28:33;;;;;;;4.22;3.50;;;13.40;91.50;;;;;;5054899;28;20438;-75
2021/09/12 03:30:59;;;;;;;4.35;3.30;;;13.40;91.10;;;;;;5054770;28;20033;-75
2021/09/12 03:33:24;;;;;;;4.10;3.30;;;13.40;90.90;;;;;;5054574;28;20124;-76
2021/09/12 03:35:50;;;;;;;4.75;3.63;;;13.40;90.50;;;;;;5054451;28;20049;-76
2021/09/12 03:38:16;;;;;;;4.15;3.50;;;13.40;90.40;;;;;;5054962;28;20481;-76
2021/09/12 03:40:41;;;;;;;5.38;3.47;;;13.30;90.30;;;;;;5067848;28;20036;-75
2021/09/12 03:43:08;;;;;;;3.72;3.33;;;13.20;90.20;;;;;;5060023;28;20070;-76
2021/09/12 03:45:33;;;;;;;5.90;3.30;;;13.20;90.60;;;;;;5055078;28;20022;-76
2021/09/12 03:47:59;;;;;;;9.48;4.07;;;13.20;90.70;;;;;;5054341;28;20444;-76
2021/09/12 03:50:25;;;;;;;8.32;4.38;;;13.10;90.80;;;;;;5054389;28;20552;-76
2021/09/12 03:52:50;;;;;;;3.92;3.40;;;13.20;90.80;;;;;;5054215;28;20078;-76
2021/09/12 03:55:16;;;;;;;4.28;3.85;;;13.10;91.00;;;;;;5054126;28;20504;-76
2021/09/12 03:57:41;;;;;;;4.53;3.53;;;13.10;91.00;;;;;;5054122;28;20052;-75
2021/09/12 04:00:08;;;;;;;6.57;3.17;;;13.10;91.10;;;;;;5052854;28;20032;-77
2021/09/12 04:02:34;;;;;;;4.32;3.50;;;13.10;91.20;;;;;;5054179;28;20025;-76
2021/09/12 04:05:00;;;;;;;5.35;3.58;;;13.10;91.00;;;;;;5054044;28;20099;-76
2021/09/12 04:07:26;;;;;;;4.10;3.55;;;13.00;91.00;;;;;;5053930;28;20064;-77
2021/09/12 04:09:52;;;;;;;5.88;3.78;;;13.00;91.10;;;;;;5054124;28;20029;-74
2021/09/12 04:12:17;;;;;;;4.22;3.42;;;13.00;91.00;;;;;;5053867;28;20029;-77
2021/09/12 04:14:43;;;;;;;4.25;3.55;;;13.00;90.90;;;;;;5053854;28;20048;-77
2021/09/12 04:17:09;;;;;;;3.67;3.28;;;13.00;90.80;;;;;;5052620;28;20048;-78
2021/09/12 04:19:34;;;;;;;5.65;3.85;;;13.00;90.80;;;;;;5053919;28;20041;-77
2021/09/12 04:22:00;;;;;;;4.40;4.00;;;13.00;90.90;;;;;;5053825;28;20079;-77
2021/09/12 04:24:26;;;;;;;4.38;3.72;;;13.00;91.20;;;;;;5053593;28;20124;-76
2021/09/12 04:26:51;;;;;;;6.03;3.60;;;12.90;91.30;;;;;;5053642;28;20037;-77
2021/09/12 04:29:19;;;;;;;5.85;4.13;;;13.00;91.30;;;;;;5053571;28;20025;-78
2021/09/12 04:31:45;;;;;;;7.25;3.88;;;12.90;91.20;;;;;;5053601;28;20059;-77
2021/09/12 04:34:10;;;;;;;8.57;4.05;;;12.90;91.40;;;;;;5053429;28;20416;-77
2021/09/12 04:36:36;;;;;;;5.68;4.07;;;12.90;91.20;;;;;;5053399;28;20033;-76
2021/09/12 04:39:02;;;;;;;5.57;3.65;;;12.90;91.30;;;;;;5053505;28;20033;-73
2021/09/12 04:41:28;;;;;;;4.00;3.28;;;12.90;91.20;;;;;;5053323;28;20099;-76
2021/09/12 04:43:53;;;;;;;8.13;3.63;;;13.00;91.10;;;;;;5053380;28;20037;-75
2021/09/12 04:46:19;;;;;;;3.65;3.35;;;12.90;91.20;;;;;;5053375;28;20024;-74
2021/09/12 04:48:44;;;;;;;7.13;3.90;;;12.90;91.30;;;;;;5053280;28;20104;-75
2021/09/12 04:51:10;;;;;;;7.18;3.92;;;13.00;91.30;;;;;;5053212;28;20056;-75
2021/09/12 04:53:36;;;;;;;4.38;3.80;;;13.00;91.00;;;;;;5052360;28;20040;-75
2021/09/12 04:56:01;;;;;;;4.32;3.38;;;13.00;91.10;;;;;;5053222;28;20020;-74
2021/09/12 04:58:27;;;;;;;4.75;3.35;;;13.00;91.10;;;;;;5053151;28;20043;-74
2021/09/12 05:00:53;;;;;;;4.53;3.85;;;12.90;91.20;;;;;;5053144;28;20354;-75
2021/09/12 05:03:18;;;;;;;5.82;3.25;;;12.90;91.10;;;;;;5051756;28;20033;-75
2021/09/12 05:05:44;;;;;;;4.93;3.70;;;12.90;91.00;;;;;;5052985;28;20032;-75
2021/09/12 05:08:09;;;;;;;4.88;3.80;;;12.90;91.00;;;;;;5052994;28;20021;-74
2021/09/12 05:10:35;;;;;;;4.90;3.50;;;12.90;91.00;;;;;;5053064;28;20027;-75
2021/09/12 05:13:00;;;;;;;5.38;4.18;;;12.90;90.80;;;;;;5052942;28;20385;-74
2021/09/12 05:15:26;;;;;;;6.90;3.60;;;13.00;90.70;;;;;;5053002;28;20040;-74
2021/09/12 05:17:51;;;;;;;8.02;4.15;;;13.00;90.40;;;;;;5052900;28;20147;-74
2021/09/12 05:20:17;;;;;;;8.18;3.80;;;13.10;90.20;;;;;;5052896;28;20036;-74
2021/09/12 05:22:43;;;;;;;3.80;2.92;;;13.00;89.90;;;;;;5052828;28;20028;-76
2021/09/12 05:25:09;;;;;;;5.93;3.53;;;13.00;89.80;;;;;;5052814;28;20032;-74
2021/09/12 05:27:35;;;;;;;7.25;3.70;;;13.00;89.80;;;;;;5052899;28;20485;-76
2021/09/12 05:30:01;;;;;;;5.88;3.53;;;12.90;90.10;;;;;;5052829;28;20104;-76
2021/09/12 05:32:26;;;;;;;5.40;3.20;;;13.00;90.00;;;;;;5052807;28;20430;-76
2021/09/12 05:34:52;;;;;;;6.00;3.28;;;13.00;89.90;;;;;;5052453;28;20045;-74
2021/09/12 05:37:18;;;;;;;3.55;3.08;;;12.90;90.20;;;;;;5052748;28;20115;-77
2021/09/12 05:39:43;;;;;;;4.75;3.55;;;12.90;90.20;;;;;;5052724;28;20475;-77
2021/09/12 05:42:09;;;;;;;5.22;3.40;;;12.90;90.30;;;;;;5052711;28;20021;-77
2021/09/12 05:44:34;;;;;;;5.97;3.92;;;12.90;90.40;;;;;;5052893;28;20013;-76
2021/09/12 05:47:00;;;;;;;5.53;3.63;;;13.00;90.30;;;;;;5052653;28;20025;-73
2021/09/12 05:49:26;;;;;;;4.57;3.35;;;13.00;90.20;;;;;;5052618;28;20029;-76
2021/09/12 05:51:51;;;;;;;5.38;3.30;;;13.10;90.00;;;;;;5052609;28;20053;-76
2021/09/12 05:54:17;;;;;;;7.55;3.70;;;13.10;89.80;;;;;;5052691;28;20041;-74
2021/09/12 05:56:43;;;;;;;5.57;3.40;;;13.10;90.30;;;;;;5052593;28;20071;-75
2021/09/12 05:59:09;;;;;;;5.07;3.83;;;13.10;89.60;;;;;;5052399;28;20035;-75
2021/09/12 06:01:35;;;;;;;6.63;3.70;;;13.10;89.50;;;;;;5052607;28;20389;-75
2021/09/12 06:04:00;;;;;;;3.63;3.20;;;13.10;89.50;;;;;;5052458;28;20051;-76
2021/09/12 06:06:26;;;;;;;7.57;3.83;;;13.20;89.40;;;;;;5055641;28;20032;-76
2021/09/12 06:08:52;;;;;;;6.20;3.20;;;13.30;88.90;;;;;;5056285;28;20033;-76
2021/09/12 06:11:17;;;;;;;4.35;3.20;;;13.30;88.90;;;;;;5056257;28;20122;-74
2021/09/12 06:13:43;;;;;;;6.47;3.72;;;13.30;89.10;;;;;;5056149;28;20060;-75
2021/09/12 06:16:09;;;;;;;12.57;3.83;;;13.30;89.10;;;;;;5056102;28;20055;-76
2021/09/12 06:18:35;;;;;;;6.68;3.78;;;13.40;89.10;;;;;;5056302;28;20036;-77
2021/09/12 06:21:03;;;;;;;5.00;3.30;;;13.50;88.90;;;;;;5056255;28;20096;-77
2021/09/12 06:23:30;;;;;;;5.22;3.20;;;13.60;88.50;;;;;;5062592;28;20240;-73
2021/09/12 06:25:56;;;;;;;5.10;3.35;;;13.60;88.40;;;;;;5065063;28;20040;-74
2021/09/12 06:28:21;;;;;;;5.25;3.30;;;13.70;88.30;;;;;;5056041;28;20088;-73
2021/09/12 06:30:47;;;;;;;5.47;2.75;;;13.80;88.40;;;;;;5054787;28;20021;-75
2021/09/12 06:33:13;;;;;;;4.50;3.42;;;13.90;88.30;;;;;;5054460;28;20393;-73
2021/09/12 06:35:39;;;;;;;3.15;2.80;;;14.00;87.90;;;;;;5054563;28;20049;-74
2021/09/12 06:38:04;;;;;;;4.18;3.15;;;14.10;87.70;;;;;;5054748;28;20102;-73
2021/09/12 06:40:31;;;;;;;8.20;3.10;;;14.20;87.10;;;;;;5054314;28;20434;-73
2021/09/12 06:42:58;;;;;;;3.47;3.17;;;14.20;87.20;;;;;;5054382;28;20438;-73
2021/09/12 06:45:25;;;;;;;4.60;2.80;;;14.30;87.60;;;;;;5054291;28;20112;-76
2021/09/12 06:47:51;;;;;;;7.00;3.42;;;14.40;87.50;;;;;;5054294;28;20025;-76
2021/09/12 06:50:16;;;;;;;5.40;3.15;;;14.50;87.70;;;;;;5054064;28;20485;-73
2021/09/12 06:52:42;;;;;;;3.92;2.90;;;14.60;87.70;;;;;;5054214;28;20112;-75
2021/09/12 06:55:08;;;;;;;5.75;3.40;;;14.70;87.30;;;;;;5054192;28;20028;-76
2021/09/12 06:57:33;;;;;;;6.25;3.08;;;14.80;86.90;;;;;;5053977;28;20021;-75
2021/09/12 06:59:59;;;;;;;3.60;3.00;;;14.90;86.40;;;;;;5054118;28;20025;-76
2021/09/12 07:02:25;;;;;;;4.13;2.97;;;15.10;86.00;;;;;;5070692;28;20064;-76
2021/09/12 07:04:50;;;;;;;4.30;2.70;;;15.20;86.30;;;;;;5053909;28;20028;-76
2021/09/12 07:07:16;;;;;;;3.80;2.50;;;15.30;84.90;;;;;;5053797;28;20417;-77
2021/09/12 07:09:41;;;;;;;5.72;2.90;;;15.50;84.80;;;;;;5053588;28;20508;-76
2021/09/12 07:12:08;;;;;;;3.70;2.58;;;15.60;84.00;;;;;;5053940;28;20381;-76
2021/09/12 07:14:34;;;;;;;3.30;2.03;;;15.70;83.60;;;;;;5053396;28;20385;-76
2021/09/12 07:17:00;;;;;;;5.40;3.55;;;15.80;83.80;;;;;;5052804;28;20021;-76
2021/09/12 07:19:25;;;;;;;4.03;2.30;;;16.00;83.90;;;;;;5053495;28;20057;-76
2021/09/12 07:21:52;;;;;;;2.65;2.05;;;16.20;83.70;;;;;;5053711;28;20385;-77
2021/09/12 07:24:17;;;;;;;2.45;1.88;;;16.40;83.30;;;;;;5070097;28;20036;-76
2021/09/12 07:26:43;;;;;;;6.63;2.40;;;16.60;81.80;;;;;;5053170;28;20025;-76
2021/09/12 07:29:08;;;;;;;2.33;1.90;;;16.50;81.50;;;;;;5053166;28;20021;-77
2021/09/12 07:31:34;;;;;;;2.65;1.98;;;16.60;81.60;;;;;;5053518;28;20087;-78
2021/09/12 07:34:02;;;;;;;4.47;2.13;;;16.70;81.40;;;;;;5053453;28;20048;-76
2021/09/12 07:36:28;;;;;;;2.83;1.55;;;16.80;80.80;;;;;;5053081;28;20049;-75
2021/09/12 07:38:54;;;;;;;2.95;2.00;;;16.80;80.40;;;;;;5053288;28;20029;-77
2021/09/12 07:41:20;;;;;;;2.92;1.90;;;16.90;80.40;;;;;;5052948;28;20032;-78
2021/09/12 07:43:45;;;;;;;6.28;1.90;;;17.10;80.20;;;;;;5053308;28;20489;-77
2021/09/12 07:46:11;;;;;;;3.78;2.25;;;17.30;79.90;;;;;;5052914;28;20020;-75
2021/09/12 07:48:37;;;;;;;9.27;2.53;;;17.40;79.80;;;;;;5052716;28;20021;-81
2021/09/12 07:51:02;;;;;;;6.32;2.42;;;17.50;80.70;;;;;;5052781;28;20033;-82
2021/09/12 07:53:30;;;;;;;6.63;2.45;;;17.60;82.00;;;;;;5052887;28;20048;-84
2021/09/12 07:55:57;;;;;;;5.05;2.20;;;17.90;82.40;;;;;;5052648;28;20062;-83
2021/09/12 07:58:29;;;;;;;4.55;1.98;;;18.00;79.70;;;;;;5053252;28;20025;-83
2021/09/12 08:00:55;;;;;;;3.45;2.25;;;18.10;79.20;;;;;;5052819;28;20017;-83
2021/09/12 08:03:45;;;;;;;3.70;1.98;;;18.20;79.00;;;;;;5054342;28;20033;-81
2021/09/12 08:06:11;;;;;;;3.97;2.20;;;18.40;78.60;;;;;;5053888;28;20025;-84
2021/09/12 08:08:36;;;;;;;3.88;2.30;;;18.40;78.10;;;;;;5054389;28;20580;-81
2021/09/12 08:11:03;;;;;;;2.80;2.30;;;18.60;78.30;;;;;;5052576;28;20029;-80
2021/09/12 08:13:29;;;;;;;2.97;1.90;;;18.80;76.50;;;;;;5053445;28;20071;-82
2021/09/12 08:15:54;;;;;;;2.35;1.77;;;19.00;75.20;;;;;;5052550;28;20053;-83
2021/09/12 08:18:22;;;;;;;2.88;1.42;;;19.10;74.80;;;;;;5052744;28;20036;-82
2021/09/12 08:20:48;;;;;;;3.35;1.90;;;19.30;74.50;;;;;;5052592;28;20025;-81
2021/09/12 08:23:14;;;;;;;2.22;1.63;;;19.50;73.60;;;;;;5052441;28;20055;-81
2021/09/12 08:25:43;;;;;;;3.45;1.73;;;19.70;72.90;;;;;;5052316;28;20029;-79
2021/09/12 08:28:09;;;;;;;2.35;1.75;;;19.60;72.60;;;;;;5051651;28;20029;-80
2021/09/12 08:30:35;;;;;;;4.50;1.80;;;19.80;72.10;;;;;;5052244;28;20033;-81
2021/09/12 08:33:12;;;;;;;3.60;2.10;;;19.80;71.70;;;;;;5052275;28;20029;-83
2021/09/12 08:35:39;;;;;;;2.13;1.60;;;20.00;71.00;;;;;;5053724;28;20200;-83
2021/09/12 08:38:05;;;;;;;4.18;2.20;;;20.20;70.30;;;;;;5052304;28;20048;-84
2021/09/12 08:40:32;;;;;;;2.53;1.50;;;20.40;68.90;;;;;;5035238;28;20033;-83
2021/09/12 08:43:03;;;;;;;1.95;1.58;;;20.50;69.00;;;;;;5053033;28;20068;-84
2021/09/12 08:45:29;;;;;;;3.10;2.33;;;20.50;68.50;;;;;;5052697;28;20036;-75
2021/09/12 08:47:55;;;;;;;2.67;1.60;;;20.70;67.90;;;;;;5051616;28;20021;-74
2021/09/12 08:50:21;;;;;;;6.47;2.03;;;20.70;67.70;;;;;;5052084;28;20025;-76
2021/09/12 08:52:46;;;;;;;4.65;2.38;;;20.70;66.90;;;;;;5051908;28;20025;-76
2021/09/12 08:55:14;;;;;;;3.40;2.20;;;20.60;67.80;;;;;;5051825;28;20035;-76
2021/09/12 08:57:51;;;;;;;2.33;2.13;;;20.20;70.40;;;;;;5051886;28;20052;-75
2021/09/12 09:00:23;;;;;;;4.80;2.50;;;20.00;72.40;;;;;;5051860;28;20083;-76
2021/09/12 09:03:03;;;;;;;7.20;3.38;;;20.10;73.20;;;;;;5068450;28;20092;-76
2021/09/12 09:05:33;;;;;;;2.50;2.22;;;20.20;72.40;;;;;;5052771;28;20435;-76
2021/09/12 09:08:11;;;;;;;3.90;2.90;;;20.20;72.30;;;;;;5056050;28;20032;-77
2021/09/12 09:10:48;;;;;;;3.88;2.80;;;20.10;71.30;;;;;;5055646;28;20025;-77
2021/09/12 09:13:38;;;;;;;5.40;2.65;;;20.10;71.90;;;;;;5056828;28;20025;-78
2021/09/12 09:16:04;;;;;;;2.30;2.10;;;20.10;71.30;;;;;;5068917;28;20029;-77
2021/09/12 09:18:35;;;;;;;3.03;2.58;;;20.30;72.10;;;;;;5056019;28;20466;-76
2021/09/12 09:21:25;;;;;;;5.72;2.80;;;20.10;71.80;;;;;;5051611;28;20040;-77
2021/09/12 09:24:25;;;;;;;6.95;2.72;;;20.20;71.90;;;;;;5051261;28;20024;-76
2021/09/12 09:26:58;;;;;;;3.22;2.92;;;20.40;72.30;;;;;;5052958;28;20025;-76
2021/09/12 09:29:30;;;;;;;3.33;2.08;;;20.40;69.20;;;;;;5051571;28;20088;-77
2021/09/12 09:32:12;;;;;;;2.83;2.20;;;20.30;68.90;;;;;;5051715;28;20071;-76
2021/09/12 09:34:42;;;;;;;2.80;2.47;;;20.60;67.80;;;;;;5052504;28;20098;-77
2021/09/12 09:37:14;;;;;;;2.70;1.70;;;21.00;67.00;;;;;;5051756;28;20032;-77
2021/09/12 09:39:46;;;;;;;3.17;1.42;;;21.30;59.00;;;;;;5052978;28;20021;-76
2021/09/12 09:42:33;;;;;;;2.08;1.33;;;21.60;56.00;;;;;;5056834;28;20043;-76
2021/09/12 09:45:05;;;;;;;2.45;1.27;;;21.50;56.70;;;;;;5055513;28;20025;-75
2021/09/12 09:47:31;;;;;;;2.03;1.25;;;21.00;54.10;;;;;;5067899;28;20017;-76
2021/09/12 09:50:26;;;;;;;1.20;1.10;;;21.00;55.20;;;;;;5055589;28;20381;-77
2021/09/12 09:52:53;;;;;;;2.33;0.98;;;21.00;53.20;;;;;;5042564;28;20119;-77
2021/09/12 09:55:22;;;;;;;2.13;1.25;;;21.20;54.70;;;;;;5055338;28;20036;-77
2021/09/12 09:57:49;;;;;;;2.70;1.40;;;21.50;53.60;;;;;;5055320;28;20025;-77
2021/09/12 10:00:16;;;;;;;1.33;1.08;;;21.90;52.90;;;;;;5055339;28;20036;-77
2021/09/12 10:02:43;;;;;;;1.92;1.20;;;22.00;51.80;;;;;;5056130;28;20028;-78
2021/09/12 10:05:11;;;;;;;5.53;1.20;;;22.30;53.70;;;;;;5055054;28;20380;-78
2021/09/12 10:07:38;;;;;;;2.13;1.30;;;22.50;53.60;;;;;;5056245;28;20554;-77
2021/09/12 10:10:07;;;;;;;2.13;1.20;;;22.80;54.00;;;;;;5054918;28;20121;-78
2021/09/12 10:12:35;;;;;;;2.58;1.60;;;23.20;52.20;;;;;;5054157;28;20056;-76
2021/09/12 10:15:04;;;;;;;4.55;1.50;;;23.30;49.70;;;;;;5054824;28;20485;-77
2021/09/12 10:17:34;;;;;;;2.95;1.30;;;22.70;49.90;;;;;;5054766;28;20056;-76
2021/09/12 10:20:13;;;;;;;1.55;1.20;;;22.20;52.00;;;;;;5055625;28;20047;-76
2021/09/12 10:22:57;;;;;;;3.40;1.45;;;21.90;52.20;;;;;;5054164;28;20029;-76
2021/09/12 10:25:24;;;;;;;5.97;1.38;;;21.70;54.60;;;;;;5054127;28;20025;-74
2021/09/12 10:28:00;;;;;;;1.63;1.17;;;21.80;56.00;;;;;;5054232;28;20535;-76
2021/09/12 10:30:38;;;;;;;2.45;1.40;;;21.60;54.70;;;;;;5054731;28;20090;-74
2021/09/12 10:33:07;;;;;;;2.72;1.10;;;21.40;55.60;;;;;;5054941;28;20037;-75
2021/09/12 10:35:36;;;;;;;2.20;1.40;;;21.80;55.90;;;;;;5056107;28;20053;-76
2021/09/12 10:38:11;;;;;;;1.73;1.20;;;22.10;55.30;;;;;;5056256;28;20437;-78
2021/09/12 10:40:49;;;;;;;1.73;1.10;;;22.30;53.20;;;;;;5058730;28;20025;-74
2021/09/12 10:43:35;;;;;;;1.45;1.27;;;22.70;51.90;;;;;;5055781;28;20306;-73
2021/09/12 10:46:03;;;;;;;2.03;1.20;;;23.10;49.60;;;;;;5063487;28;20017;-73
2021/09/12 10:48:33;;;;;;;8.85;1.80;;;23.70;49.50;;;;;;5056089;28;20528;-73
2021/09/12 10:51:00;;;;;;;43.13;3.38;;;24.30;50.50;;;;;;5057511;28;20055;-74
2021/09/12 10:54:00;;;;;;;1.55;1.40;;;24.60;48.30;;;;;;5055405;28;20372;-78
2021/09/12 10:56:25;;;;;;;4.15;1.23;;;24.80;48.10;;;;;;5054294;28;20116;-77
2021/09/12 10:59:03;;;;;;;1.92;1.50;;;24.70;47.20;;;;;;5054206;28;20048;-77
2021/09/12 11:01:30;;;;;;;2.25;1.65;;;24.40;48.60;;;;;;5054944;28;20082;-77
2021/09/12 11:03:58;;;;;;;3.63;1.65;;;24.70;49.20;;;;;;5054107;28;20021;-77
2021/09/12 11:07:01;;;;;;;6.65;1.65;;;24.50;47.00;;;;;;5054047;28;20086;-77
2021/09/12 11:09:28;;;;;;;2.67;1.63;;;24.30;49.20;;;;;;5044257;28;20029;-77
2021/09/12 11:11:57;;;;;;;2.67;1.55;;;24.50;49.10;;;;;;5053883;28;20029;-77
2021/09/12 11:14:24;;;;;;;4.38;1.40;;;24.90;48.70;;;;;;5056596;28;20036;-76
2021/09/12 11:16:51;;;;;;;2.03;1.40;;;24.80;47.30;;;;;;5054987;28;20024;-77
2021/09/12 11:19:17;;;;;;;3.47;1.85;;;24.90;47.10;;;;;;5053870;28;20029;-77
2021/09/12 11:21:45;;;;;;;2.95;1.70;;;24.90;47.00;;;;;;5053798;28;20021;-76
2021/09/12 11:24:23;;;;;;;9.35;4.07;;;25.20;47.60;;;;;;5053710;28;20083;-76
2021/09/12 11:26:53;;;;;;;2.60;1.02;;;25.60;45.40;;;;;;5054893;28;20025;-77
2021/09/12 11:29:28;;;;;;;1.85;1.30;;;25.70;43.90;;;;;;5054734;28;20025;-76
2021/09/12 11:32:05;;;;;;;1.73;1.30;;;25.80;43.20;;;;;;5055793;28;20031;-77
2021/09/12 11:34:34;;;;;;;2.85;1.13;;;26.10;42.60;;;;;;5054322;28;20116;-77
2021/09/12 11:37:01;;;;;;;1.73;1.05;;;26.30;41.10;;;;;;5055098;28;20427;-79
2021/09/12 11:39:32;;;;;;;1.05;0.90;;;26.40;38.90;;;;;;5053317;28;20060;-80
2021/09/12 11:42:00;;;;;;;1.52;1.10;;;26.20;38.80;;;;;;5053597;28;20029;-79
2021/09/12 11:44:46;;;;;;;1.60;1.10;;;26.30;39.30;;;;;;5052973;28;20083;-79
2021/09/12 11:47:15;;;;;;;3.00;1.25;;;26.40;40.70;;;;;;5053328;28;20025;-79
2021/09/12 11:50:26;;;;;;;4.07;1.45;;;26.60;40.30;;;;;;5055315;28;20033;-81
2021/09/12 11:53:19;;;;;;;1.00;0.90;;;26.80;40.10;;;;;;5070475;28;20108;-84
2021/09/12 11:55:45;;;;;;;3.10;1.10;;;27.00;39.70;;;;;;5053131;28;20036;-79
2021/09/12 11:58:12;;;;;;;5.30;1.20;;;27.20;38.40;;;;;;5053379;28;20029;-80
2021/09/12 12:00:47;;;;;;;7.25;2.15;;;27.30;39.40;;;;;;5052981;28;20103;-78
2021/09/12 12:03:24;;;;;;;5.25;1.63;;;27.50;39.00;;;;;;5053805;28;20404;-79
2021/09/12 12:05:59;;;;;;;3.42;1.20;;;27.70;37.00;;;;;;5054861;28;20385;-78
2021/09/12 12:08:27;;;;;;;15.70;1.80;;;27.80;35.50;;;;;;5054030;28;20032;-77
2021/09/12 12:11:04;;;;;;;8.07;1.80;;;27.50;36.40;;;;;;5052369;28;20047;-74
2021/09/12 12:13:32;;;;;;;3.45;1.30;;;27.70;37.30;;;;;;5053662;28;20029;-77
2021/09/12 12:16:02;;;;;;;1.48;1.20;;;27.50;37.60;;;;;;5053646;28;20397;-77
2021/09/12 12:18:28;;;;;;;2.15;1.00;;;27.30;38.60;;;;;;5052207;28;20029;-72
2021/09/12 12:20:56;;;;;;;1.95;1.10;;;27.50;38.70;;;;;;5052261;28;20025;-73
2021/09/12 12:23:26;;;;;;;4.78;1.50;;;27.80;38.60;;;;;;5052333;28;20033;-75
2021/09/12 12:25:52;;;;;;;1.88;1.15;;;28.20;38.70;;;;;;5053585;28;20039;-76
2021/09/12 12:28:21;;;;;;;1.52;1.02;;;28.50;38.10;;;;;;5051950;28;20017;-76
2021/09/12 12:31:07;;;;;;;3.35;1.00;;;28.40;35.60;;;;;;5052266;28;20029;-75
2021/09/12 12:33:33;;;;;;;1.50;1.00;;;27.40;38.10;;;;;;5052207;28;20036;-76
2021/09/12 12:36:06;;;;;;;1.40;1.10;;;27.50;37.70;;;;;;5051766;28;20056;-76
2021/09/12 12:38:33;;;;;;;1.92;1.00;;;28.00;37.80;;;;;;5052197;28;20025;-76
2021/09/12 12:41:20;;;;;;;6.85;1.20;;;28.30;37.10;;;;;;5052225;28;20029;-79
2021/09/12 12:43:46;;;;;;;1.77;1.08;;;28.30;36.50;;;;;;5052263;28;20481;-75
2021/09/12 12:46:12;;;;;;;2.83;1.23;;;27.80;36.30;;;;;;5052231;28;20071;-75
2021/09/12 12:48:41;;;;;;;4.03;0.90;;;27.70;36.80;;;;;;5052050;28;20024;-76
2021/09/12 12:51:12;;;;;;;1.52;1.08;;;27.80;37.30;;;;;;5051923;28;20439;-76